Aérodrome :
LOGIN :

S'inscrire | Disclaimer

   EN    FR    IT 

 










Légende :    VFR   VFR Marginal   IFR   IFR Intensif   IFR Très Intensif
Visi : 
Plafond : 
>= 8 km
>= 3000ft
5 à 8 km
1000 à 3000 ft
1500m à 5 km
500 à 1000 ft
800 à 1500m
200 à 500 ft
< 800m
< 200 ft
Symboles :   Orages  Brouillard  Fortes neiges  Fortes précipitations  Vent > 20 kt
SIGMETs :   Divers  Orages  Givrage  Turbulence  Onde Orograph.  Cendres Volcan.







- Altitude de l'aérodrome : 157 ft
- Code IATA : LIL
- Voir les cartes d'approche


LFQQ - Lille Lesquin

DERNIER METAR :
  • 221530Z AUTO 19006KT 150V220 CAVOK 17/03 Q1027 NOSIG

METARs EXPIRÉS :
  • 221500Z AUTO 20004KT 120V230 CAVOK 17/02 Q1027 NOSIG
  • 221430Z AUTO 21005KT 170V230 CAVOK 17/03 Q1027 NOSIG
  • 221400Z AUTO 24004KT 200V280 CAVOK 17/07 Q1027 NOSIG
  • 221330Z AUTO 19003KT 130V240 CAVOK 16/06 Q1028 NOSIG
  • 221300Z AUTO 21003KT 130V290 CAVOK 15/07 Q1028 NOSIG

TAF TAF LFQQ
Valide du 22 à 12h jusqu'au 23 à 18h UTC


221100Z 2212/2318 16005KT CAVOK
BECMG 2221/2224 0500 FG VV///
PROB40 2300/2304 0200 FG VV///
BECMG 2304/2307 7000 NSW OVC004
BECMG 2307/2310 BKN008
BECMG 2310/2312 03010KT BKN020
ATIS : +33 3 20 16 19 54
Pas de NOTAMs connus pour ce terrain.



MET'MAP, la Météo Aéronautique d'un coup d'oeil ! - Copyright ORBIFLY Décembre 2007 - Disclaimer

ORBIFLY MET'MAP TEAM :

Programmation & Développement : Alexandra Zaïnal
Conception & Développement : Baudouin d'Aumeries
Co-Programmation & Développement : Marc-Olivier Méhu
Soutien technique & logistique : Manuel Goepfert

Contact : metmap@orbifly.com




SOURCES & CREDITS :

   NOAA